Time;durP1;ratioP1;P1;durP2;ratioP2;P2;SDS_P1;SDS_P2;PMS_P1;PMS_P2;Temp;Humidity;BMP_temperature;BMP_pressure;BME280_temperature;BME280_humidity;BME280_pressure;Samples;Min_cycle;Max_cycle;Signal;HPM_P1;HPM_P2
2022/03/26 00:01:37;;;;;;;20.35;11.00;;;;;;;2.36;53.86;94288.16;5114299;28;20493;-44
2022/03/26 00:04:03;;;;;;;20.98;11.70;;;;;;;2.11;54.94;94286.09;5114297;28;20023;-43
2022/03/26 00:06:29;;;;;;;29.80;14.43;;;;;;;1.85;55.76;94283.25;5114627;27;20027;-43
2022/03/26 00:08:54;;;;;;;30.85;14.73;;;;;;;1.85;54.95;94282.47;5114172;28;20023;-43
2022/03/26 00:11:20;;;;;;;36.03;17.58;;;;;;;1.96;55.81;94283.41;5105667;28;20034;-44
2022/03/26 00:13:46;;;;;;;32.97;16.52;;;;;;;1.84;55.43;94270.84;5114351;28;20030;-44
2022/03/26 00:16:11;;;;;;;31.95;15.95;;;;;;;1.69;55.61;94258.50;5114081;28;20027;-44
2022/03/26 00:18:38;;;;;;;32.60;15.20;;;;;;;1.34;56.50;94278.19;5114105;28;20020;-43
2022/03/26 00:21:04;;;;;;;28.35;15.45;;;;;;;1.39;56.22;94261.22;5114315;28;20035;-43
2022/03/26 00:23:29;;;;;;;35.22;15.32;;;;;;;1.78;55.02;94282.84;5114044;28;20102;-44
2022/03/26 00:25:55;;;;;;;28.52;16.88;;;;;;;1.79;56.21;94287.84;5113837;28;20070;-43
2022/03/26 00:28:20;;;;;;;29.40;15.18;;;;;;;1.47;56.86;94292.28;5114216;27;20103;-43
2022/03/26 00:30:46;;;;;;;31.80;16.00;;;;;;;1.49;56.37;94295.28;5114352;28;20024;-43
2022/03/26 00:33:11;;;;;;;27.05;14.82;;;;;;;1.46;56.76;94295.47;5113801;28;20035;-43
2022/03/26 00:35:37;;;;;;;22.58;12.95;;;;;;;1.60;56.45;94283.84;5113634;28;20039;-44
2022/03/26 00:38:02;;;;;;;25.17;13.45;;;;;;;1.37;57.32;94290.88;5113615;28;20020;-43
2022/03/26 00:40:28;;;;;;;30.90;13.65;;;;;;;1.30;56.86;94282.34;5107086;28;20028;-44
2022/03/26 00:42:53;;;;;;;26.65;13.43;;;;;;;0.95;57.58;94290.38;5093504;28;20028;-44
2022/03/26 00:45:19;;;;;;;23.48;12.43;;;;;;;0.81;57.56;94282.16;5093159;28;20591;-44
2022/03/26 00:47:44;;;;;;;32.53;15.30;;;;;;;0.87;58.91;94289.22;5092836;28;20031;-43
2022/03/26 00:50:10;;;;;;;33.50;14.15;;;;;;;1.06;57.71;94290.56;5093005;28;20039;-44
2022/03/26 00:52:36;;;;;;;27.48;13.20;;;;;;;0.95;57.78;94290.38;5093300;28;20108;-44
2022/03/26 00:55:03;;;;;;;22.50;12.05;;;;;;;1.16;57.46;94297.44;5095265;28;20027;-43
2022/03/26 00:57:29;;;;;;;20.85;11.52;;;;;;;0.90;58.25;94295.69;5113549;28;20028;-44
2022/03/26 00:59:54;;;;;;;20.40;11.52;;;;;;;1.11;57.59;94292.63;5113309;28;20108;-43
2022/03/26 01:02:19;;;;;;;27.63;14.20;;;;;;;1.11;58.65;94294.59;5113530;28;20027;-43
2022/03/26 01:04:45;;;;;;;26.92;14.30;;;;;;;0.95;58.42;94297.78;5113208;28;20019;-45
2022/03/26 01:07:10;;;;;;;29.67;13.13;;;;;;;0.72;58.88;94310.16;5113004;28;20023;-43
2022/03/26 01:09:36;;;;;;;24.55;12.15;;;;;;;0.45;59.92;94318.53;5113129;28;20031;-43
2022/03/26 01:12:01;;;;;;;18.17;10.18;;;;;;;0.43;59.93;94310.84;5093992;28;20093;-43
2022/03/26 01:14:27;;;;;;;15.98;8.07;;;;;;;0.55;59.59;94320.72;5092543;28;20063;-44
2022/03/26 01:16:53;;;;;;;19.75;9.55;;;;;;;0.53;59.88;94312.28;5092823;28;20035;-44
2022/03/26 01:19:18;;;;;;;23.10;12.15;;;;;;;0.75;59.17;94320.88;5092776;28;20028;-44
2022/03/26 01:21:44;;;;;;;29.00;13.25;;;;;;;0.66;58.99;94320.19;5092465;28;20063;-44
2022/03/26 01:24:10;;;;;;;28.83;13.32;;;;;;;0.52;59.75;94318.19;5092428;28;20031;-44
2022/03/26 01:26:35;;;;;;;21.17;11.48;;;;;;;0.48;59.90;94323.78;5092716;28;20036;-44
2022/03/26 01:29:01;;;;;;;17.30;9.40;;;;;;;0.41;59.07;94332.25;5092324;28;20036;-43
2022/03/26 01:31:26;;;;;;;22.48;10.93;;;;;;;0.68;58.82;94328.63;5092540;28;20039;-43
2022/03/26 01:33:51;;;;;;;20.23;9.85;;;;;;;0.72;58.31;94331.91;5092541;28;20036;-44
2022/03/26 01:36:17;;;;;;;21.48;10.98;;;;;;;0.67;58.44;94336.03;5091869;28;20414;-44
2022/03/26 01:38:43;;;;;;;24.65;12.73;;;;;;;0.49;59.10;94338.13;5092383;28;20118;-44
2022/03/26 01:41:09;;;;;;;22.88;12.60;;;;;;;0.41;59.18;94337.69;5091431;28;20046;-44
2022/03/26 01:43:34;;;;;;;30.45;14.25;;;;;;;0.55;58.99;94337.00;5092002;28;20425;-44
2022/03/26 01:46:00;;;;;;;27.67;14.95;;;;;;;0.43;58.89;94329.84;5091941;28;20024;-46
2022/03/26 01:48:25;;;;;;;21.75;13.18;;;;;;;0.46;58.81;94325.44;5092223;28;20028;-45
2022/03/26 01:50:51;;;;;;;20.30;11.63;;;;;;;0.42;59.10;94327.59;5092438;28;20580;-44
2022/03/26 01:53:16;;;;;;;26.00;12.70;;;;;;;0.44;59.11;94325.16;5091873;28;20471;-45
2022/03/26 01:55:42;;;;;;;17.65;9.90;;;;;;;0.24;59.12;94333.13;5099395;28;20020;-45
2022/03/26 01:58:09;;;;;;;18.42;10.20;;;;;;;-0.24;59.77;94318.72;5112331;28;20080;-44
2022/03/26 02:00:35;;;;;;;20.63;9.77;;;;;;;-0.25;59.89;94312.53;5111728;28;20032;-46
2022/03/26 02:03:01;;;;;;;19.45;10.35;;;;;;;0.05;59.90;94332.47;5111987;28;20603;-44
2022/03/26 02:05:26;;;;;;;25.88;12.10;;;;;;;0.09;60.00;94338.47;5111916;28;20111;-44
2022/03/26 02:07:52;;;;;;;17.63;10.20;;;;;;;0.08;59.73;94338.94;5111916;28;20020;-47
2022/03/26 02:10:18;;;;;;;20.55;10.63;;;;;;;-0.08;60.38;94331.91;5107165;28;20058;-45
2022/03/26 02:12:46;;;;;;;13.30;8.45;;;;;;;-0.31;61.19;94336.06;5091825;28;20185;-46
2022/03/26 02:15:12;;;;;;;16.37;8.80;;;;;;;-0.21;60.42;94337.53;5091436;28;20032;-44
2022/03/26 02:17:38;;;;;;;16.25;8.45;;;;;;;-0.34;60.33;94336.97;5091246;28;20028;-46
2022/03/26 02:20:07;;;;;;;19.88;7.82;;;;;;;-0.35;60.84;94337.44;5091620;28;20034;-46
2022/03/26 02:22:33;;;;;;;11.45;7.65;;;;;;;-0.45;60.50;94347.56;5091370;28;20035;-44
2022/03/26 02:24:58;;;;;;;22.42;11.40;;;;;;;-0.33;60.20;94343.16;5091196;28;20031;-44
2022/03/26 02:27:25;;;;;;;36.03;20.95;;;;;;;-0.29;60.05;94335.59;5091189;28;20020;-43
2022/03/26 02:29:52;;;;;;;32.13;18.48;;;;;;;-0.37;60.76;94343.31;5089998;28;20115;-45
2022/03/26 02:32:19;;;;;;;43.08;21.60;;;;;;;-0.44;60.85;94343.66;5091039;28;20043;-44
2022/03/26 02:34:45;;;;;;;36.20;21.25;;;;;;;-0.21;60.53;94342.97;5090931;28;20079;-44
2022/03/26 02:37:10;;;;;;;30.10;18.55;;;;;;;-0.09;60.25;94350.16;5090973;28;20024;-45
2022/03/26 02:39:36;;;;;;;25.25;14.85;;;;;;;-0.19;59.81;94342.50;5090977;28;20024;-43
2022/03/26 02:42:01;;;;;;;23.90;12.30;;;;;;;-0.44;60.07;94343.66;5090334;28;20123;-44
2022/03/26 02:44:27;;;;;;;16.75;9.45;;;;;;;-0.64;60.92;94345.34;5090907;28;20035;-45
2022/03/26 02:46:52;;;;;;;18.65;9.35;;;;;;;-0.58;60.26;94355.13;5090900;28;20047;-44
2022/03/26 02:49:18;;;;;;;20.00;11.20;;;;;;;-0.51;60.15;94343.19;5090790;28;20081;-45
2022/03/26 02:51:43;;;;;;;21.17;12.85;;;;;;;-0.51;60.81;94357.53;5091097;28;20024;-44
2022/03/26 02:54:19;;;;;;;23.98;13.10;;;;;;;-0.53;60.70;94354.50;5090808;28;20032;-46
2022/03/26 02:56:48;;;;;;;26.58;15.75;;;;;;;-0.44;60.64;94359.94;5107308;28;20088;-44
2022/03/26 02:59:14;;;;;;;22.45;13.20;;;;;;;-0.56;61.42;94351.97;5111340;28;20031;-43
2022/03/26 03:01:40;;;;;;;21.70;12.15;;;;;;;-0.62;61.25;94356.47;5110836;28;20508;-44
2022/03/26 03:04:05;;;;;;;17.50;10.63;;;;;;;-0.82;60.90;94351.53;5111236;28;20085;-43
2022/03/26 03:06:31;;;;;;;21.20;11.48;;;;;;;-0.89;62.20;94360.00;5110915;28;20030;-47
2022/03/26 03:08:57;;;;;;;28.85;12.38;;;;;;;-1.09;62.46;94355.03;5110775;28;20069;-45
2022/03/26 03:11:23;;;;;;;18.17;10.05;;;;;;;-1.08;62.40;94353.81;5097291;28;20024;-45
2022/03/26 03:13:48;;;;;;;21.95;11.32;;;;;;;-1.20;63.02;94352.00;5090645;28;20028;-44
2022/03/26 03:16:15;;;;;;;15.88;10.32;;;;;;;-1.12;62.76;94350.50;5090353;28;20024;-45
2022/03/26 03:18:41;;;;;;;19.00;9.77;;;;;;;-1.01;62.56;94361.63;5090404;28;20103;-43
2022/03/26 03:21:06;;;;;;;14.23;8.18;;;;;;;-1.00;61.88;94354.28;5090539;28;20105;-44
2022/03/26 03:23:32;;;;;;;15.20;8.68;;;;;;;-1.03;61.79;94357.88;5090694;28;20444;-45
2022/03/26 03:25:57;;;;;;;15.85;9.07;;;;;;;-1.15;61.93;94356.06;5090504;28;20039;-44
2022/03/26 03:28:23;;;;;;;23.00;11.30;;;;;;;-1.10;61.27;94336.50;5090549;28;20026;-44
2022/03/26 03:30:48;;;;;;;20.73;9.82;;;;;;;-1.28;61.42;94360.88;5090121;28;20494;-43
2022/03/26 03:33:14;;;;;;;19.45;11.30;;;;;;;-1.07;61.65;94363.47;5090171;28;20031;-43
2022/03/26 03:35:40;;;;;;;28.95;13.52;;;;;;;-0.96;61.88;94365.72;5090112;28;20101;-44
2022/03/26 03:38:05;;;;;;;28.15;16.35;;;;;;;-1.02;62.34;94365.53;5090365;28;20047;-43
2022/03/26 03:40:31;;;;;;;25.20;14.70;;;;;;;-1.29;62.01;94365.53;5088349;28;20512;-44
2022/03/26 03:42:56;;;;;;;25.52;13.43;;;;;;;-1.20;62.84;94368.25;5090461;28;20024;-43
2022/03/26 03:45:22;;;;;;;16.58;10.55;;;;;;;-1.28;62.08;94372.47;5090433;28;20478;-43
2022/03/26 03:47:47;;;;;;;15.95;8.57;;;;;;;-1.34;62.15;94362.69;5090060;28;20034;-45
2022/03/26 03:50:13;;;;;;;13.77;6.28;;;;;;;-1.58;63.11;94370.59;5090361;28;20013;-44
2022/03/26 03:52:38;;;;;;;9.57;6.43;;;;;;;-1.41;62.62;94362.97;5090323;28;20481;-44
2022/03/26 03:55:05;;;;;;;14.93;8.90;;;;;;;-1.36;63.13;94373.94;5091147;28;20386;-43
2022/03/26 03:57:31;;;;;;;21.65;8.90;;;;;;;-1.43;62.83;94376.97;5110083;28;20032;-44
2022/03/26 03:59:56;;;;;;;14.68;8.35;;;;;;;-1.43;62.88;94373.50;5110578;28;20023;-43
2022/03/26 04:02:21;;;;;;;10.82;7.05;;;;;;;-1.34;62.19;94376.97;5110322;28;20077;-44
2022/03/26 04:04:47;;;;;;;20.17;10.13;;;;;;;-1.56;62.99;94379.78;5110564;28;20480;-45
2022/03/26 04:07:12;;;;;;;21.05;9.85;;;;;;;-1.57;63.16;94377.53;5110626;28;20458;-44
2022/03/26 04:09:38;;;;;;;17.20;10.57;;;;;;;-1.57;63.63;94378.28;5110220;28;20508;-45
2022/03/26 04:12:04;;;;;;;21.45;11.82;;;;;;;-1.54;63.78;94380.09;5090884;28;20069;-43
2022/03/26 04:14:31;;;;;;;31.75;15.15;;;;;;;-1.60;63.08;94383.84;5090046;28;20024;-44
2022/03/26 04:16:57;;;;;;;18.90;10.50;;;;;;;-2.02;64.83;94388.97;5090023;28;20425;-44
2022/03/26 04:19:23;;;;;;;14.27;8.15;;;;;;;-1.77;63.89;94394.19;5090130;28;20020;-45
2022/03/26 04:21:48;;;;;;;16.02;9.65;;;;;;;-1.85;62.73;94392.94;5090004;28;20569;-44
2022/03/26 04:24:14;;;;;;;17.63;10.55;;;;;;;-1.75;62.49;94391.78;5091288;28;20096;-44
2022/03/26 04:26:40;;;;;;;21.50;10.45;;;;;;;-1.71;62.70;94391.66;5093374;28;20031;-43
2022/03/26 04:29:06;;;;;;;24.77;13.52;;;;;;;-1.74;63.50;94392.53;5093504;28;20099;-44
2022/03/26 04:31:31;;;;;;;29.23;15.23;;;;;;;-1.67;63.28;94389.56;5093786;28;20027;-43
2022/03/26 04:34:01;;;;;;;25.63;15.27;;;;;;;-1.93;64.33;94393.69;5093582;28;20047;-44
2022/03/26 04:36:29;;;;;;;21.05;13.30;;;;;;;-1.97;64.87;94399.22;5093373;28;20026;-44
2022/03/26 04:38:56;;;;;;;25.52;12.73;;;;;;;-1.89;64.67;94397.75;5092489;28;20476;-43
2022/03/26 04:41:22;;;;;;;27.58;14.40;;;;;;;-1.89;64.45;94405.13;5092687;28;20111;-44
2022/03/26 04:43:47;;;;;;;21.70;13.75;;;;;;;-1.74;64.18;94404.13;5093183;28;20102;-44
2022/03/26 04:46:13;;;;;;;23.23;13.98;;;;;;;-1.61;63.51;94407.47;5093201;28;20059;-44
2022/03/26 04:48:38;;;;;;;27.52;14.63;;;;;;;-1.61;63.21;94407.47;5093118;28;20016;-43
2022/03/26 04:51:04;;;;;;;25.80;12.85;;;;;;;-1.88;63.58;94410.06;5093117;28;20024;-44
2022/03/26 04:53:29;;;;;;;25.17;12.38;;;;;;;-2.04;63.76;94388.69;5105648;28;20076;-44
2022/03/26 04:55:55;;;;;;;17.33;9.35;;;;;;;-1.99;64.28;94409.72;5104082;28;20031;-43
2022/03/26 04:58:20;;;;;;;19.15;10.07;;;;;;;-1.78;64.16;94406.22;5092807;28;20028;-43
2022/03/26 05:00:46;;;;;;;18.10;10.82;;;;;;;-1.93;63.40;94413.38;5092897;28;20093;-44
2022/03/26 05:03:11;;;;;;;30.27;13.90;;;;;;;-2.01;63.97;94409.41;5092778;28;20028;-44
2022/03/26 05:05:37;;;;;;;24.33;15.05;;;;;;;-1.97;64.36;94418.16;5093122;28;20024;-44
2022/03/26 05:08:02;;;;;;;27.02;14.63;;;;;;;-1.58;63.00;94422.03;5092971;28;20012;-43
2022/03/26 05:10:29;;;;;;;23.52;13.73;;;;;;;-1.58;63.88;94408.50;5099041;28;20492;-45
2022/03/26 05:12:55;;;;;;;30.33;14.20;;;;;;;-1.71;64.84;94419.44;5113328;28;20026;-43
2022/03/26 05:15:23;;;;;;;23.45;13.65;;;;;;;-1.57;64.01;94420.84;5112976;28;20020;-44
2022/03/26 05:17:49;;;;;;;25.40;14.05;;;;;;;-1.31;63.74;94415.94;5113152;28;20028;-43
2022/03/26 05:20:15;;;;;;;19.58;11.63;;;;;;;-1.18;64.03;94420.03;5112881;28;20031;-43
2022/03/26 05:22:42;;;;;;;30.45;16.55;;;;;;;-0.99;63.20;94418.09;5112867;28;20020;-45
2022/03/26 05:25:09;;;;;;;27.00;16.00;;;;;;;-0.87;62.98;94414.50;5112846;28;20102;-44
2022/03/26 05:27:35;;;;;;;42.95;25.30;;;;;;;-0.73;62.67;94416.59;5112829;28;20106;-44
2022/03/26 05:30:01;;;;;;;34.85;22.20;;;;;;;-0.60;62.44;94421.84;5112746;28;20052;-45
2022/03/26 05:32:26;;;;;;;44.92;26.92;;;;;;;-0.40;61.82;94420.19;5112730;28;20023;-45
2022/03/26 05:34:52;;;;;;;51.03;34.35;;;;;;;-0.32;61.58;94418.66;5111507;28;20084;-45
2022/03/26 05:37:18;;;;;;;59.97;36.72;;;;;;;-0.04;61.21;94422.06;5112489;28;20497;-43
2022/03/26 05:39:44;;;;;;;70.45;37.72;;;;;;;0.45;60.04;94421.75;5111880;28;20024;-44
2022/03/26 05:42:09;;;;;;;101.55;52.95;;;;;;;0.72;59.67;94424.31;5092414;28;20055;-44
2022/03/26 05:44:35;;;;;;;121.97;59.05;;;;;;;0.93;58.90;94420.59;5092020;28;20421;-46
2022/03/26 05:47:01;;;;;;;215.68;99.28;;;;;;;1.15;58.53;94404.69;5091997;28;20016;-46
2022/03/26 05:49:27;;;;;;;160.55;78.85;;;;;;;1.88;57.04;94418.44;5101947;28;20077;-44
2022/03/26 05:51:52;;;;;;;80.95;42.08;;;;;;;2.50;55.86;94418.19;5112548;28;20043;-45
2022/03/26 05:54:18;;;;;;;69.57;33.50;;;;;;;3.07;54.46;94421.22;5112241;28;20606;-44
2022/03/26 05:56:51;;;;;;;40.88;23.83;;;;;;;3.46;51.69;94399.88;5095690;28;20027;-44
2022/03/26 05:59:19;;;;;;;47.20;28.23;;;;;;;4.12;51.26;94425.13;5091760;28;20026;-45
2022/03/26 06:01:45;;;;;;;48.73;29.17;;;;;;;4.52;49.25;94424.22;5092119;28;20493;-48
2022/03/26 06:04:11;;;;;;;54.67;31.55;;;;;;;4.85;48.23;94405.28;5091604;28;20027;-43
2022/03/26 06:06:37;;;;;;;50.75;29.63;;;;;;;5.25;47.27;94429.66;5091705;28;20017;-45
2022/03/26 06:09:03;;;;;;;51.25;30.45;;;;;;;5.71;46.08;94423.09;5091505;28;20032;-43
2022/03/26 06:11:30;;;;;;;45.80;29.30;;;;;;;6.05;45.65;94422.72;5106603;28;20049;-43
2022/03/26 06:13:57;;;;;;;45.28;29.17;;;;;;;6.56;44.79;94421.50;5111836;28;20110;-44
2022/03/26 06:16:23;;;;;;;49.78;31.77;;;;;;;7.15;43.05;94421.19;5111995;28;20468;-46
2022/03/26 06:18:49;;;;;;;50.75;30.30;;;;;;;8.18;42.11;94425.25;5111796;28;20110;-44
2022/03/26 06:21:14;;;;;;;59.25;35.53;;;;;;;8.81;40.23;94406.56;5111780;28;20031;-44
2022/03/26 06:23:40;;;;;;;90.53;47.60;;;;;;;9.36;39.02;94418.28;5111620;28;20024;-44
2022/03/26 06:26:06;;;;;;;85.50;44.85;;;;;;;9.95;38.32;94429.13;5110454;28;20415;-45
2022/03/26 06:28:32;;;;;;;86.00;47.58;;;;;;;10.99;36.13;94431.63;5111529;28;20038;-45
2022/03/26 06:30:57;;;;;;;52.55;31.98;;;;;;;11.89;34.94;94431.53;5111812;28;20024;-44
2022/03/26 06:33:23;;;;;;;35.08;23.67;;;;;;;12.79;33.42;94431.81;5111488;28;20031;-45
2022/03/26 06:35:50;;;;;;;42.55;26.95;;;;;;;13.35;31.97;94426.41;5111239;28;20075;-44
2022/03/26 06:38:15;;;;;;;58.67;32.88;;;;;;;13.83;30.96;94427.66;5111300;28;20027;-44
2022/03/26 06:40:42;;;;;;;41.45;27.13;;;;;;;14.44;30.15;94432.22;5102625;28;20020;-45
2022/03/26 06:43:08;;;;;;;35.80;22.95;;;;;;;15.37;28.26;94429.78;5090927;28;20028;-44
2022/03/26 06:45:35;;;;;;;44.03;26.27;;;;;;;16.22;26.83;94429.13;5099461;28;20099;-45
2022/03/26 06:48:02;;;;;;;45.97;25.67;;;;;;;16.85;25.94;94435.38;5111396;28;20023;-44
2022/03/26 06:50:28;;;;;;;40.45;24.48;;;;;;;17.65;25.65;94428.28;5111173;28;20389;-46
2022/03/26 06:52:55;;;;;;;36.45;22.45;;;;;;;18.42;23.88;94437.41;5111099;28;20408;-45
2022/03/26 06:55:21;;;;;;;28.80;17.75;;;;;;;18.88;22.87;94441.16;5106647;28;20019;-45
2022/03/26 06:57:49;;;;;;;37.40;24.80;;;;;;;19.39;22.32;94443.78;5090930;28;20032;-46
2022/03/26 07:00:15;;;;;;;30.80;21.45;;;;;;;19.83;21.75;94420.47;5090718;28;20081;-44
2022/03/26 07:02:42;;;;;;;47.08;28.20;;;;;;;20.14;21.06;94443.84;5090596;28;20489;-45
2022/03/26 07:05:09;;;;;;;45.95;30.88;;;;;;;20.40;21.74;94443.00;5090698;28;20031;-46
2022/03/26 07:07:35;;;;;;;52.03;30.95;;;;;;;20.51;21.46;94445.22;5090619;28;20023;-45
2022/03/26 07:10:02;;;;;;;38.85;24.67;;;;;;;20.64;21.25;94441.97;5093064;28;20031;-46
2022/03/26 07:12:29;;;;;;;36.80;23.73;;;;;;;20.72;19.91;94448.19;5110693;27;20039;-45
2022/03/26 07:14:56;;;;;;;22.42;16.73;;;;;;;20.51;20.33;94442.41;5111087;28;20489;-45
2022/03/26 07:17:23;;;;;;;36.70;17.17;;;;;;;21.03;20.86;94445.47;5111045;28;20026;-44
2022/03/26 07:19:51;;;;;;;26.20;17.60;;;;;;;22.03;19.36;94451.03;5110780;28;20098;-46
2022/03/26 07:22:17;;;;;;;33.35;17.77;;;;;;;22.70;18.41;94451.34;5110727;28;20420;-44
2022/03/26 07:24:43;;;;;;;29.85;17.45;;;;;;;23.20;17.62;94451.00;5111003;28;20377;-45
2022/03/26 07:27:09;;;;;;;26.90;19.33;;;;;;;23.47;17.63;94445.72;5110595;28;20069;-45
2022/03/26 07:29:38;;;;;;;25.85;18.92;;;;;;;23.99;16.97;94448.19;5110694;28;20420;-44
2022/03/26 07:32:06;;;;;;;31.05;20.40;;;;;;;24.14;16.45;94452.63;5110592;28;20027;-44
2022/03/26 07:34:32;;;;;;;23.83;16.98;;;;;;;24.53;15.52;94450.69;5110671;28;20089;-45
2022/03/26 07:37:00;;;;;;;22.98;14.07;;;;;;;24.89;15.81;94446.41;5110499;28;20123;-45
2022/03/26 07:39:26;;;;;;;72.53;19.27;;;;;;;25.22;16.09;94447.63;5110579;28;20027;-44
2022/03/26 07:41:53;;;;;;;20.98;13.55;;;;;;;25.64;15.44;94437.94;5101014;28;20114;-47
2022/03/26 07:44:18;;;;;;;13.60;9.90;;;;;;;25.56;14.00;94443.13;5110489;28;20085;-42
2022/03/26 07:46:44;;;;;;;11.98;9.20;;;;;;;26.02;14.00;94442.03;5110295;28;20111;-42
2022/03/26 07:49:10;;;;;;;13.32;9.60;;;;;;;24.67;14.00;94443.78;5110410;28;20027;-42
2022/03/26 07:51:35;;;;;;;11.48;7.57;;;;;;;25.45;13.74;94426.97;5110448;28;20031;-43
2022/03/26 07:54:01;;;;;;;13.25;8.80;;;;;;;26.01;14.07;94443.44;5110642;28;20032;-42
2022/03/26 07:56:27;;;;;;;11.35;6.82;;;;;;;25.84;12.85;94449.56;5096328;28;20031;-42
2022/03/26 07:58:54;;;;;;;12.45;7.55;;;;;;;25.38;13.26;94448.50;5091986;28;20050;-41
2022/03/26 08:01:19;;;;;;;15.88;7.93;;;;;;;25.87;13.30;94448.31;5094029;28;20035;-42
2022/03/26 08:03:46;;;;;;;10.48;7.53;;;;;;;26.30;12.17;94435.03;5093998;28;20024;-43
2022/03/26 08:06:12;;;;;;;8.68;7.35;;;;;;;27.27;12.71;94440.59;5093910;28;20036;-42
2022/03/26 08:08:40;;;;;;;21.08;8.50;;;;;;;27.26;12.08;94432.72;5094002;28;20107;-44
2022/03/26 08:11:06;;;;;;;33.35;8.50;;;;;;;27.48;11.71;94439.47;5105289;28;20051;-43
2022/03/26 08:13:33;;;;;;;11.98;7.10;;;;;;;27.71;11.54;94433.47;5114214;28;20059;-43
2022/03/26 08:15:59;;;;;;;14.25;7.43;;;;;;;27.61;10.71;94433.72;5114189;27;20232;-43
2022/03/26 08:18:25;;;;;;;11.50;7.32;;;;;;;26.37;11.31;94439.66;5114196;28;20024;-43
2022/03/26 08:20:50;;;;;;;10.52;7.63;;;;;;;26.84;12.04;94437.06;5113985;28;20051;-41
2022/03/26 08:23:16;;;;;;;12.48;7.97;;;;;;;25.95;12.05;94437.44;5114054;28;20023;-41
2022/03/26 08:28:26;;;;;;;8.68;7.45;;;;;;;27.24;11.98;94435.47;5114289;28;20412;-42
2022/03/26 08:30:52;;;;;;;12.75;8.50;;;;;;;27.08;11.14;94426.19;5113707;28;20051;-42
2022/03/26 08:33:18;;;;;;;9.88;7.28;;;;;;;27.83;11.17;94434.00;5112572;28;20034;-42
2022/03/26 08:35:44;;;;;;;12.25;8.27;;;;;;;28.20;10.96;94434.28;5112455;28;20065;-43
2022/03/26 08:38:10;;;;;;;12.25;7.93;;;;;;;27.95;11.70;94434.56;5113543;28;20090;-42
2022/03/26 08:40:36;;;;;;;8.55;7.50;;;;;;;28.30;11.24;94434.75;5106024;28;20020;-43
2022/03/26 08:43:04;;;;;;;10.95;8.07;;;;;;;28.37;10.93;94441.41;5093203;28;20028;-43
2022/03/26 08:45:30;;;;;;;9.30;7.43;;;;;;;28.39;11.65;94425.16;5093173;28;20035;-42
2022/03/26 08:47:56;;;;;;;10.20;7.18;;;;;;;28.72;11.16;94438.66;5093250;28;20481;-43
2022/03/26 08:50:23;;;;;;;9.75;8.02;;;;;;;29.05;11.29;94437.91;5093140;28;20031;-43
2022/03/26 08:52:49;;;;;;;10.73;7.60;;;;;;;29.14;10.58;94434.00;5093035;28;20028;-44
2022/03/26 08:55:16;;;;;;;8.43;6.82;;;;;;;28.92;10.47;94436.69;5096885;28;20039;-44
2022/03/26 08:57:42;;;;;;;13.38;7.55;;;;;;;28.88;11.25;94436.50;5113235;28;20047;-44
2022/03/26 09:00:10;;;;;;;18.35;7.70;;;;;;;28.30;11.35;94439.69;5113405;28;20030;-43
2022/03/26 09:02:36;;;;;;;15.38;9.57;;;;;;;28.57;11.05;94435.88;5113394;28;20030;-43
2022/03/26 09:05:02;;;;;;;11.13;7.43;;;;;;;28.92;10.63;94435.94;5113163;27;20035;-42
2022/03/26 09:07:28;;;;;;;11.60;9.57;;;;;;;27.29;11.54;94440.69;5113540;28;20032;-42
2022/03/26 09:09:53;;;;;;;9.90;7.90;;;;;;;28.01;11.18;94429.19;5113174;28;20546;-44
2022/03/26 09:12:19;;;;;;;10.98;8.25;;;;;;;27.61;11.79;94427.31;5113435;28;20432;-45
2022/03/26 09:14:44;;;;;;;9.93;7.65;;;;;;;27.94;11.67;94424.56;5113368;28;20121;-42
2022/03/26 09:17:09;;;;;;;8.65;7.03;;;;;;;28.03;10.79;94415.06;5113230;28;20436;-43
2022/03/26 09:19:36;;;;;;;13.57;7.38;;;;;;;28.36;10.80;94417.94;5113312;28;20459;-43
2022/03/26 09:22:02;;;;;;;13.10;8.00;;;;;;;27.05;11.77;94420.41;5113105;28;20471;-42
2022/03/26 09:24:28;;;;;;;13.50;10.13;;;;;;;27.61;11.85;94410.31;5113254;28;20030;-43
2022/03/26 09:26:53;;;;;;;15.20;9.85;;;;;;;27.72;11.19;94410.09;5113327;28;20020;-42
2022/03/26 09:29:19;;;;;;;15.07;10.50;;;;;;;27.88;11.61;94415.03;5113101;28;20083;-42
2022/03/26 09:31:44;;;;;;;10.45;7.80;;;;;;;27.73;10.38;94410.84;5112758;28;20471;-42
2022/03/26 09:34:10;;;;;;;61.88;11.25;;;;;;;26.45;11.22;94406.06;5104689;28;20032;-43
2022/03/26 09:36:36;;;;;;;13.05;7.85;;;;;;;25.48;12.46;94411.59;5092579;28;20027;-44
2022/03/26 09:39:02;;;;;;;12.85;8.90;;;;;;;26.71;12.21;94407.38;5092452;28;20024;-45
2022/03/26 09:41:28;;;;;;;11.63;7.90;;;;;;;27.38;11.60;94405.69;5091678;28;20505;-45
2022/03/26 09:43:54;;;;;;;9.43;7.40;;;;;;;27.77;11.79;94403.25;5090905;28;20055;-44
2022/03/26 09:46:20;;;;;;;15.00;8.98;;;;;;;28.03;11.20;94400.88;5092339;28;20028;-43
2022/03/26 09:48:46;;;;;;;11.07;8.32;;;;;;;28.59;11.40;94399.03;5092027;28;20482;-43
2022/03/26 09:51:14;;;;;;;11.63;9.38;;;;;;;28.86;10.90;94402.31;5092111;28;20047;-43
2022/03/26 09:53:40;;;;;;;;;;;;;;;28.45;10.90;94390.63;5092483;28;20020;-44
2022/03/26 09:56:06;;;;;;;11.50;8.75;;;;;;;27.76;11.63;94395.38;5101561;28;19915;-42
2022/03/26 09:58:32;;;;;;;9.00;7.50;;;;;;;28.63;10.75;94402.06;5112345;28;20447;-43
2022/03/26 10:00:57;;;;;;;18.90;8.93;;;;;;;29.09;11.18;94395.41;5112250;28;20024;-42
2022/03/26 10:03:23;;;;;;;11.48;8.25;;;;;;;27.35;10.96;94375.03;5112092;28;20111;-42
2022/03/26 10:05:48;;;;;;;20.75;9.05;;;;;;;28.10;11.65;94382.72;5112406;28;20024;-44
2022/03/26 10:08:24;;;;;;;12.13;8.52;;;;;;;27.64;10.53;94387.03;5110760;28;20038;-44
2022/03/26 10:10:50;;;;;;;11.90;8.45;;;;;;;28.21;11.66;94383.91;5111886;28;20023;-44
2022/03/26 10:13:33;;;;;;;10.98;7.97;;;;;;;28.47;10.36;94382.19;5112285;28;20179;-46
2022/03/26 10:16:00;;;;;;;10.68;8.20;;;;;;;28.56;10.97;94361.25;5111898;28;20031;-47
2022/03/26 10:18:26;;;;;;;12.07;8.52;;;;;;;28.77;10.78;94379.88;5111773;28;20026;-45
2022/03/26 10:20:58;;;;;;;10.73;8.82;;;;;;;27.87;11.99;94357.56;5111444;28;20027;-44
2022/03/26 10:23:28;;;;;;;27.33;10.70;;;;;;;28.03;12.74;94371.75;5111750;28;20024;-46
2022/03/26 10:26:10;;;;;;;14.20;10.27;;;;;;;27.58;12.58;94381.09;5111896;28;20049;-44
2022/03/26 10:28:36;;;;;;;11.40;9.23;;;;;;;27.72;12.16;94366.84;5111936;28;20031;-42
2022/03/26 10:34:09;;;;;;;19.63;9.40;;;;;;;26.63;12.56;94358.84;5091329;28;20121;-43
2022/03/26 10:36:39;;;;;;;28.42;13.30;;;;;;;25.35;14.01;94358.56;5090944;28;20047;-47
2022/03/26 10:39:07;;;;;;;13.20;10.10;;;;;;;25.70;12.74;94363.97;5102599;28;20497;-43
2022/03/26 10:41:34;;;;;;;110.70;14.48;;;;;;;26.60;12.68;94348.75;5108829;28;20027;-44
2022/03/26 10:44:11;;;;;;;13.15;9.07;;;;;;;27.07;12.00;94348.19;5111388;28;20441;-47
2022/03/26 10:46:47;;;;;;;10.25;8.63;;;;;;;27.49;12.39;94318.97;5111549;28;20490;-45
2022/03/26 10:49:15;;;;;;;26.17;11.80;;;;;;;27.81;12.47;94340.25;5098397;28;20493;-44
2022/03/26 10:51:42;;;;;;;13.95;9.15;;;;;;;26.96;11.75;94335.66;5105453;28;20020;-44
2022/03/26 10:54:09;;;;;;;15.55;8.55;;;;;;;26.24;12.37;94332.81;5094607;28;20020;-43
2022/03/26 10:56:37;;;;;;;39.97;11.00;;;;;;;26.34;12.56;94330.47;5096410;28;20466;-43
2022/03/26 10:59:02;;;;;;;16.70;9.15;;;;;;;27.29;12.17;94329.38;5090882;28;20046;-43
2022/03/26 11:01:28;;;;;;;24.20;16.15;;;;;;;27.64;12.50;94326.72;5105967;28;20024;-43
2022/03/26 11:03:54;;;;;;;18.73;12.38;;;;;;;27.61;12.04;94314.56;5111111;28;20023;-44
2022/03/26 11:06:24;;;;;;;17.08;8.52;;;;;;;27.89;11.34;94326.44;5110962;28;20405;-45
2022/03/26 11:08:51;;;;;;;79.57;11.82;;;;;;;27.92;11.42;94321.56;5111175;28;20027;-43
2022/03/26 11:11:16;;;;;;;12.52;8.40;;;;;;;28.31;11.29;94319.72;5097344;28;20020;-43
2022/03/26 11:13:45;;;;;;;18.55;8.70;;;;;;;28.46;11.38;94326.72;5101042;28;20497;-45
2022/03/26 11:16:23;;;;;;;12.40;8.90;;;;;;;28.17;11.22;94321.25;5097642;28;20485;-43
2022/03/26 11:19:11;;;;;;;12.75;9.23;;;;;;;26.36;12.29;94310.75;5093936;28;20032;-44
2022/03/26 11:21:54;;;;;;;10.77;8.18;;;;;;;27.34;11.92;94305.47;5108756;28;20112;-44
2022/03/26 11:24:53;;;;;;;12.13;8.82;;;;;;;25.81;12.08;94295.97;5109049;28;20077;-43